Athelstane, WI

6:23 PM CDT on September 02, 2015 (GMT -0500)
Athelstane Township | | Change Station
CLOSE
Current Station
Personal Weather Station
Location: Athelstane, WI
Elevation: 966 ft
Nearby Weather Stations

Elev 966 ft 45.40 °N, 88.12 °W | Updated 4 seconds ago

Overcast
Overcast
68.2 °F
Feels Like 68.2 °F
N
0.0
Wind Variable Wind from ESE
Gusts 0.0 mph

Today
High -- | Low -- °F
--% Chance of Precip.
Yesterday
High -- | Low -- °F
Precip. -- in
6:15 AM 7:29 PM
Waning Gibbous, 76% visible
Pressure 29.94 in
Visibility 8.0 miles
Clouds Scattered Clouds 500 ft
Mostly Cloudy 900 ft
Overcast 11000 ft
Dew Point 64 °F
Humidity 87%
Rainfall 0.76 in
Snow Depth Not available.
UV 0 out of 12
Pollen 9.60 out of 12
Air Quality Not available.
Flu Activity Not available.
SPECI KIMT 022308Z AUTO 13006KT 8SM SCT005 BKN009 OVC110 21/20 A2994 RMK AO2 LTG DSNT E RAE02 CIG 007V012 P0000 T02110200
Pressure 29.94 in
Visibility 8.0 miles
Clouds Scattered Clouds 500 ft
Mostly Cloudy 900 ft
Overcast 11000 ft
Dew Point 64 °F
Humidity 87%
Rainfall 0.76 in
Snow Depth Not available.
UV 0 out of 12
Pollen 9.60 out of 12
Air Quality Not available.
Flu Activity Not available.
SPECI KIMT 022308Z AUTO 13006KT 8SM SCT005 BKN009 OVC110 21/20 A2994 RMK AO2 LTG DSNT E RAE02 CIG 007V012 P0000 T02110200

10-Day Weather Forecast

×

Almanac

Astronomy

Sep. 02, 2015 Rise Set
Actual Time
Civil Twilight
Nautical Twilight
Astronomical Twilight
Moon
Length of Visible Light
Length of Day
Tomorrow will be .
, % of the Moon is Illuminated

Today's Extremes

State Highs State Lows

Community

WunderPhotos

Upload Photos

1,851,826 photos uploaded!

WunderBlogs® & News

Nearby

Air Quality

  Air Quality AQ Index Pollutant
Not available.

Snow Depth

Station Depth Elevation

Earthquake Activity

City Distance Mag. Time & Date
Minimum magnitude displayed is 2.5.

Coastal Water Temperatures

Place Temperature

Stations

Nearby Weather Stations

Station Location Temp. Windchill Dew Point Humidity Wind Precip. Elev Updated Type